Latest Weather Observations for Coffs Harbour

IDN60801

Issued at 9:33 pm EDT Sunday 1 March 2015 (issued every 30 minutes, with the page automatically refreshed every 10 minutes)

About weather observations | Map of weather stations | Latest weather observations for NSW | Other Formats
Station Details ID: 059040 Name: COFFS HARBOUR MO Lat: -30.31 Lon: 153.12 Height: 5.0 m
Data from the previous 72 hours. | See also: Recent months at Coffs Harbour
Date/Time
EDT
Temp
°C
App
Temp
°C
Dew
Point
Rel
Hum
%
Delta-T
°C
Wind Press
QNH
hPa
Press
MSL
hPa
Rain
since 9 am
mm
Dir
 
Spd
km/h
Gust
km/h
Spd
kts
Gust
kts
01/09:00pm 24.3 25.6 21.6 85 1.8 NNE 17 19 9 10 - - 0.0
01/08:30pm 24.4 25.3 21.9 86 1.7 NNE 20 26 11 14 - - 0.0
01/08:00pm 24.5 25.1 21.0 81 2.3 NNE 19 24 10 13 - - 0.0
01/07:30pm 24.8 25.3 21.1 80 2.4 NNE 20 26 11 14 - - 0.0
01/07:00pm 25.2 25.1 21.5 80 2.5 NNE 24 30 13 16 - - 0.0
01/06:30pm 25.7 27.7 23.0 85 1.8 NNE 17 22 9 12 - - 0.0
01/06:00pm 25.9 29.0 22.8 83 2.1 NNE 11 19 6 10 - - 0.0
01/05:30pm 25.9 27.4 23.0 84 2.0 NNE 20 28 11 15 - - 0.0
01/05:00pm 26.3 27.1 22.4 79 2.6 NNE 22 30 12 16 - - 0.0
01/04:30pm 26.6 26.2 22.4 78 2.8 NNE 28 35 15 19 - - 0.0
01/04:00pm 26.7 25.7 21.9 75 3.2 NNE 30 39 16 21 - - 0.0
01/03:30pm 28.0 26.1 22.0 70 4.0 NNE 35 48 19 26 - - 0.0
01/03:00pm 27.6 26.1 22.8 75 3.3 NE 35 48 19 26 - - 0.0
01/02:30pm 28.1 27.2 22.8 73 3.6 NNE 32 44 17 24 - - 0.0
01/02:00pm 29.3 27.7 23.3 70 4.1 NNE 37 48 20 26 - - 0.0
01/01:30pm 28.6 27.8 23.3 73 3.6 NE 33 43 18 23 - - 0.0
01/01:00pm 30.1 30.5 22.5 63 5.2 NNE 24 33 13 18 - - 0.0
01/12:30pm 30.7 31.2 21.2 57 6.4 NNE 20 28 11 15 - - 0.0
01/12:00pm 29.9 30.1 20.5 57 6.2 NNE 20 28 11 15 - - 0.0
01/11:30am 29.5 29.7 20.6 58 5.9 N 20 30 11 16 - - 0.0
01/11:00am 29.0 29.0 20.2 59 5.8 N 20 30 11 16 - - 0.0
01/10:30am 28.7 29.3 20.2 60 5.6 N 17 24 9 13 - - 0.0
01/10:00am 27.9 29.4 20.5 64 4.9 N 13 19 7 10 - - 0.0
01/09:30am 27.2 28.7 20.5 67 4.4 N 13 19 7 10 - - 0.0
01/09:00am 26.3 27.4 20.4 70 3.9 NNW 15 20 8 11 - - 0.2
01/08:30am 25.5 26.5 20.3 73 3.4 NNW 15 20 8 11 - - 0.2
01/08:00am 24.4 25.9 20.5 79 2.5 N 13 17 7 9 - - 0.2
01/07:30am 23.2 24.1 20.0 82 2.1 N 15 19 8 10 - - 0.2
01/07:00am 22.4 23.2 19.8 85 1.7 N 15 20 8 11 - - 0.2
01/06:30am 21.9 23.0 19.6 87 1.5 NNW 13 17 7 9 - - 0.2
01/06:00am 21.9 23.3 19.5 86 1.5 NNE 11 15 6 8 - - 0.2
01/05:30am 22.4 22.8 19.8 85 1.7 NNW 17 24 9 13 - - 0.2
01/05:00am 22.2 22.6 19.9 87 1.5 NW 17 24 9 13 - - 0.2
01/04:30am 22.6 23.9 20.1 86 1.6 NNW 13 19 7 10 - - 0.2
01/04:00am 22.5 23.5 20.2 87 1.5 NNW 15 26 8 14 - - 0.2
01/03:30am 22.7 23.8 20.4 87 1.5 NW 15 20 8 11 - - 0.2
01/03:00am 22.4 23.4 20.3 88 1.4 NNW 15 22 8 12 - - 0.2
01/02:30am 22.3 24.0 20.2 88 1.4 NNW 11 13 6 7 - - 0.2
01/02:00am 22.5 23.7 20.6 89 1.2 NNW 15 20 8 11 - - 0.2
01/01:30am 22.0 23.7 20.1 89 1.2 N 11 13 6 7 - - 0.2
01/01:00am 22.3 24.5 20.4 89 1.2 NNW 9 13 5 7 - - 0.2
01/12:30am 22.6 23.9 20.1 86 1.6 NNW 13 15 7 8 - - 0.2
01/12:00am 23.1 25.2 20.1 83 1.9 NW 9 11 5 6 - - 0.2
 
Date/Time
EDT
Temp
°C
App
Temp
°C
Dew
Point
Rel
Hum
%
Delta-T
°C
Wind Press
QNH
hPa
Press
MSL
hPa
Rain
since 9 am
mm
Dir
 
Spd
km/h
Gust
km/h
Spd
kts
Gust
kts
28/11:30pm 24.0 25.9 20.5 81 2.3 NNW 11 19 6 10 - - 0.2
28/11:00pm 24.3 25.1 20.6 80 2.4 NNW 17 24 9 13 - - 0.2
28/10:30pm 24.4 25.6 20.7 80 2.4 N 15 20 8 11 - - 0.2
28/10:00pm 24.2 25.4 20.7 81 2.3 N 15 19 8 10 - - 0.2
28/09:30pm 24.6 25.4 20.7 79 2.6 N 17 22 9 12 - - 0.2
28/09:00pm 24.8 25.6 20.7 78 2.7 N 17 24 9 13 - - 0.2
28/08:30pm 25.0 26.2 20.7 77 2.8 N 15 20 8 11 - - 0.2
28/08:00pm 25.0 25.3 20.7 77 2.8 N 20 26 11 14 - - 0.2
28/07:30pm 25.1 25.4 20.8 77 2.8 NNE 20 30 11 16 - - 0.2
28/07:00pm 25.2 24.7 20.7 76 2.9 NNE 24 33 13 18 - - 0.2
28/06:30pm 25.4 24.5 20.6 75 3.1 NNE 26 33 14 18 - - 0.2
28/06:00pm 25.5 24.4 21.0 76 3.0 NNE 28 37 15 20 - - 0.2
28/05:30pm 26.0 24.6 21.2 75 3.2 NNE 30 39 16 21 - - 0.2
28/05:00pm 26.8 26.1 21.8 74 3.3 NNE 28 37 15 20 - - 0.2
28/04:30pm 26.7 25.7 21.2 72 3.6 NE 28 37 15 20 - - 0.2
28/04:00pm 27.5 26.6 21.5 70 4.0 NE 28 39 15 21 - - 0.2
28/03:30pm 27.6 27.3 21.9 71 3.8 NE 26 35 14 19 - - 0.2
28/03:00pm 27.1 26.3 21.6 72 3.7 NE 28 37 15 20 - - 0.2
28/02:30pm 27.0 25.9 21.1 70 3.9 NE 28 37 15 20 - - 0.2
28/02:00pm 27.5 27.8 22.2 73 3.6 NE 24 33 13 18 - - 0.2
28/01:30pm 27.1 27.1 21.6 72 3.7 NE 24 33 13 18 - - 0.2
28/01:00pm 27.3 27.6 22.3 74 3.4 ENE 24 32 13 17 - - 0.2
28/12:30pm 27.3 27.4 21.8 72 3.7 ENE 24 30 13 16 - - 0.2
28/12:00pm 27.1 27.5 21.8 73 3.5 ENE 22 30 12 16 - - 0.2
28/11:30am 27.0 27.7 21.5 72 3.7 NE 20 28 11 15 - - 0.2
28/11:00am 26.7 27.7 21.7 74 3.3 NE 19 26 10 14 - - 0.2
28/10:30am 26.5 29.3 21.5 74 3.3 NNE 9 13 5 7 - - 0.0
28/10:00am 26.4 28.6 21.2 73 3.4 E 11 15 6 8 - - 0.0
28/09:30am 25.8 28.7 21.7 78 2.7 ENE 9 13 5 7 - - 0.0
28/09:00am 24.6 27.9 21.9 85 1.8 NW 7 11 4 6 - - 4.2
28/08:30am 23.5 26.3 21.6 89 1.3 NW 9 11 5 6 - - 4.2
28/08:00am 21.9 24.5 21.2 96 0.5 WNW 9 11 5 6 - - 4.2
28/07:30am 21.1 24.9 20.9 99 0.1 NNW 2 7 1 4 - - 4.2
28/07:00am 19.8 21.6 19.6 99 0.1 NW 9 11 5 6 - - 4.2
28/06:30am 19.7 23.1 19.4 98 0.2 CALM 0 9 0 5 - - 4.2
28/06:00am 19.8 22.9 19.5 98 0.2 NNW 2 7 1 4 - - 4.2
28/05:30am 20.0 23.6 19.8 99 0.1 CALM 0 0 0 0 - - 4.2
28/05:00am 20.1 23.3 19.8 98 0.2 NW 2 6 1 3 - - 4.2
28/04:30am 20.3 22.7 20.0 98 0.2 WNW 7 7 4 4 - - 4.2
28/04:00am 20.5 22.6 20.2 98 0.2 NW 9 9 5 5 - - 4.2
28/03:30am 20.7 23.3 20.5 99 0.1 NNE 7 13 4 7 - - 4.2
28/03:00am 20.4 24.2 20.1 98 0.2 CALM 0 0 0 0 - - 4.2
28/02:30am 20.5 23.2 20.2 98 0.2 WNW 6 9 3 5 - - 4.2
28/02:00am 20.7 24.6 20.4 98 0.2 CALM 0 6 0 3 - - 4.2
28/01:30am 20.7 24.0 20.0 96 0.4 W 2 6 1 3 - - 4.2
28/01:00am 21.1 23.8 20.6 97 0.3 WNW 7 9 4 5 - - 4.2
28/12:30am 21.3 24.3 20.8 97 0.3 WNW 6 7 3 4 - - 4.2
28/12:00am 21.5 25.6 20.8 96 0.5 CALM 0 0 0 0 - - 4.2
 
Date/Time
EDT
Temp
°C
App
Temp
°C
Dew
Point
Rel
Hum
%
Delta-T
°C
Wind Press
QNH
hPa
Press
MSL
hPa
Rain
since 9 am
mm
Dir
 
Spd
km/h
Gust
km/h
Spd
kts
Gust
kts
27/11:30pm 21.8 24.7 21.1 96 0.5 NW 7 9 4 5 - - 4.2
27/11:00pm 22.0 25.0 21.3 96 0.5 WNW 7 11 4 6 - - 4.2
27/10:30pm 22.1 26.5 21.3 95 0.5 CALM 0 7 0 4 - - 4.2
27/10:00pm 22.2 25.3 21.4 95 0.5 NNW 7 11 4 6 - - 4.0
27/09:30pm 22.6 25.5 21.8 95 0.5 NNW 9 15 5 8 - - 4.0
27/09:00pm 22.5 24.9 21.5 94 0.7 WNW 11 15 6 8 - - 4.0
27/08:30pm 23.0 25.4 21.6 92 0.9 NNW 11 17 6 9 - - 3.2
27/08:00pm 23.7 27.1 21.6 88 1.4 NE 6 15 3 8 - - 0.0
27/07:30pm 23.2 27.3 20.7 86 1.6 CALM 0 0 0 0 - - 0.0
27/07:00pm 24.5 27.2 20.6 79 2.5 ENE 7 11 4 6 - - 0.0
27/06:30pm 25.4 27.5 20.2 73 3.4 E 9 13 5 7 - - 0.0
27/06:00pm 25.5 26.9 20.3 73 3.4 ENE 13 17 7 9 - - 0.0
27/05:30pm 25.9 27.2 20.2 71 3.7 NE 13 19 7 10 - - 0.0
27/05:00pm 26.2 27.7 20.5 71 3.7 E 13 17 7 9 - - 0.0
27/04:30pm 26.1 27.7 20.7 72 3.5 ESE 13 17 7 9 - - 0.0
27/04:00pm 26.2 28.1 21.4 75 3.2 ESE 13 17 7 9 - - 0.0
27/03:30pm 26.3 28.3 21.5 75 3.2 ESE 13 17 7 9 - - 0.0
27/03:00pm 26.9 28.6 21.6 72 3.5 ESE 15 20 8 11 - - 0.0
27/02:30pm 26.2 27.8 20.7 71 3.6 SE 13 19 7 10 - - 0.0
27/02:00pm 26.1 27.9 21.1 74 3.3 SSE 13 19 7 10 - - 0.0
27/01:30pm 25.9 27.5 20.7 73 3.4 SE 13 19 7 10 - - 0.0
27/01:00pm 25.7 26.8 20.5 73 3.4 SSE 15 19 8 10 - - 0.0
27/12:30pm 24.7 26.0 20.8 79 2.6 SSE 15 20 8 11 - - 0.0
27/12:00pm 25.4 26.5 21.3 78 2.7 SSE 17 20 9 11 - - 0.0
27/11:30am 25.0 26.2 21.5 81 2.3 SSE 17 20 9 11 - - 0.0
27/11:00am 24.4 24.9 20.1 77 2.8 S 17 22 9 12 - - 0.0
27/10:30am 24.7 26.0 20.8 79 2.6 SSE 15 17 8 9 - - 0.0
27/10:00am 24.7 25.9 20.6 78 2.7 SSE 15 17 8 9 - - 0.0
27/09:30am 25.2 27.4 20.5 75 3.1 SSW 9 15 5 8 - - 0.0
27/09:00am 24.2 26.2 19.9 77 2.8 SSW 9 11 5 6 - - 1.4
27/08:30am 23.5 26.1 20.4 83 2.0 SSW 7 11 4 6 - - 1.4
27/08:00am 22.5 24.8 20.6 89 1.2 W 9 9 5 5 - - 1.4
27/07:30am 21.0 23.2 20.5 97 0.3 NW 9 11 5 6 - - 1.4
27/07:00am 20.2 22.5 19.9 98 0.2 NW 7 9 4 5 - - 1.4
27/06:30am 20.3 23.9 19.8 97 0.3 CALM 0 6 0 3 - - 1.4
27/06:00am 20.5 22.4 19.8 96 0.4 NE 9 13 5 7 - - 1.4
27/05:30am 21.0 23.6 20.0 94 0.6 N 6 11 3 6 - - 1.4
27/05:00am 20.7 21.9 19.9 95 0.5 N 13 15 7 8 - - 1.4
27/04:30am 20.6 22.5 19.8 95 0.5 N 9 13 5 7 - - 1.4
27/04:00am 20.5 22.4 19.7 95 0.5 NNW 9 11 5 6 - - 1.4
27/03:30am 21.0 22.5 19.8 93 0.8 NW 11 13 6 7 - - 1.4
27/03:00am 21.0 22.2 20.0 94 0.6 NW 13 15 7 8 - - 1.4
27/02:30am 21.4 21.8 19.9 91 1.0 NNE 17 22 9 12 - - 1.2
27/02:00am 21.2 22.5 20.2 94 0.6 N 13 17 7 9 - - 1.0
27/01:30am 21.8 23.8 19.9 89 1.2 NNW 9 13 5 7 - - 0.8
27/01:00am 21.4 23.5 20.2 93 0.8 WNW 9 13 5 7 - - 0.8
27/12:30am 21.5 23.6 20.1 92 0.9 WNW 9 13 5 7 - - 0.8
27/12:00am 21.7 23.1 20.3 92 0.9 NW 13 15 7 8 - - 0.8
 
Date/Time
EDT
Temp
°C
App
Temp
°C
Dew
Point
Rel
Hum
%
Delta-T
°C
Wind Press
QNH
hPa
Press
MSL
hPa
Rain
since 9 am
mm
Dir
 
Spd
km/h
Gust
km/h
Spd
kts
Gust
kts
26/11:30pm 21.7 23.1 20.3 92 0.9 NW 13 15 7 8 - - 0.8
26/11:00pm 21.6 23.1 20.6 94 0.6 NW 13 15 7 8 - - 0.8
26/10:30pm 21.5 23.4 20.5 94 0.6 NW 11 13 6 7 - - 0.8
26/10:00pm 21.7 23.6 20.5 93 0.8 NW 11 17 6 9 - - 0.8

Other Formats:

Comma delimited format used in spreadsheet applications
http://www.bom.gov.au/fwo/IDN60801/IDN60801.94791.axf

JavaScript Object Notation format (JSON) in row-major order
http://www.bom.gov.au/fwo/IDN60801/IDN60801.94791.json